Accueil
METAR-TAF:

METAR-TAF

Aéroports :

Aéroport de Chambéry-Savoie

Chambery / Aix-Les-Bains, France

latitude: 45-39N, longitude: 005-53E, altitude: 235 m

Observation

Le bulletin a été fait il y a 44 minutes, à 18:30 UTC
Vent 2 kt de direction variable
Température 25°C
Humidité 65%
Pression 1018 hPa
Visibilité 10 km ou plus
pas de nuages en-dessous de 1500 mètres et pas de cumulonimbus.

METAR: LFLB 201830Z AUTO VRB02KT CAVOK 25/18 Q1018 NOSIG

Heure: 21:14 (19:14 UTC)

Prévision

Le bulletin a été fait il y a 8 heures et 14 minutes, à 11:00 UTC
Prévision valable du 20 à 12 UTC au 21 à 12 UTC
Vent 5 kt de nord
Visibilité 10 km ou plus
Quelques nuages à une hauteur de 5000 ft

TAF: LFLB 201100Z 2012/2112 36005KT 9999 FEW050

Observations et prévisions météorologiques de plus de 4000 aéroports (messages METAR et TAF).

Les stations disponibles sont représentées par des disques jaunes et rouges sur la carte.

Passer la souris dessus pour voir le nom de la station.

Cliquer dessus pour voir les observations et prévisions météorologiques.

Pour changer de carte: cliquez sur les boutons verts avec une croix noire pour zoomer, sur le bouton vert avec un tiret pour effectuer un zoom arrière, ou sur les flèches vertes pour les cartes adjacentes.


METAR-TAF: